sensor_id;sensor_type;location;lat;lon;timestamp;pressure;altitude;pressure_sealevel;temperature;humidity
62051;BME280;48008;51.204;6.766;2023-02-28T00:00:18;102493.09;;;1.66;65.43
62051;BME280;48008;51.204;6.766;2023-02-28T00:02:45;102490.53;;;1.65;65.31
62051;BME280;48008;51.204;6.766;2023-02-28T00:05:15;102495.19;;;1.57;65.81
62051;BME280;48008;51.204;6.766;2023-02-28T00:07:42;102493.47;;;1.56;65.71
62051;BME280;48008;51.204;6.766;2023-02-28T00:10:12;102487.22;;;1.60;65.88
62051;BME280;48008;51.204;6.766;2023-02-28T00:12:39;102484.50;;;1.63;65.79
62051;BME280;48008;51.204;6.766;2023-02-28T00:15:08;102484.09;;;1.50;65.86
62051;BME280;48008;51.204;6.766;2023-02-28T00:17:36;102494.38;;;1.54;66.37
62051;BME280;48008;51.204;6.766;2023-02-28T00:20:05;102488.56;;;1.46;67.12
62051;BME280;48008;51.204;6.766;2023-02-28T00:22:41;102490.25;;;1.47;66.92
62051;BME280;48008;51.204;6.766;2023-02-28T00:25:10;102489.44;;;1.45;66.41
62051;BME280;48008;51.204;6.766;2023-02-28T00:27:38;102491.22;;;1.45;66.96
62051;BME280;48008;51.204;6.766;2023-02-28T00:30:06;102497.31;;;1.45;66.58
62051;BME280;48008;51.204;6.766;2023-02-28T00:32:33;102489.44;;;1.45;66.97
62051;BME280;48008;51.204;6.766;2023-02-28T00:35:01;102490.53;;;1.40;66.78
62051;BME280;48008;51.204;6.766;2023-02-28T00:37:28;102492.38;;;1.36;67.11
62051;BME280;48008;51.204;6.766;2023-02-28T00:39:55;102494.91;;;1.39;66.74
62051;BME280;48008;51.204;6.766;2023-02-28T00:42:23;102493.31;;;1.35;67.24
62051;BME280;48008;51.204;6.766;2023-02-28T00:44:50;102497.63;;;1.36;67.10
62051;BME280;48008;51.204;6.766;2023-02-28T00:47:17;102495.94;;;1.35;67.68
62051;BME280;48008;51.204;6.766;2023-02-28T00:49:43;102490.00;;;1.30;67.71
62051;BME280;48008;51.204;6.766;2023-02-28T00:52:10;102490.66;;;1.37;67.84
62051;BME280;48008;51.204;6.766;2023-02-28T00:54:36;102484.34;;;1.42;66.88
62051;BME280;48008;51.204;6.766;2023-02-28T00:57:03;102480.19;;;1.37;67.54
62051;BME280;48008;51.204;6.766;2023-02-28T00:59:31;102483.78;;;1.32;66.99
62051;BME280;48008;51.204;6.766;2023-02-28T01:01:58;102488.09;;;1.35;67.54
62051;BME280;48008;51.204;6.766;2023-02-28T01:04:24;102489.63;;;1.41;67.14
62051;BME280;48008;51.204;6.766;2023-02-28T01:06:51;102494.16;;;1.36;67.81
62051;BME280;48008;51.204;6.766;2023-02-28T01:09:18;102490.75;;;1.33;67.57
62051;BME280;48008;51.204;6.766;2023-02-28T01:11:45;102485.69;;;1.27;68.76
62051;BME280;48008;51.204;6.766;2023-02-28T01:14:14;102491.94;;;1.23;68.76
62051;BME280;48008;51.204;6.766;2023-02-28T01:16:41;102498.09;;;1.22;68.72
62051;BME280;48008;51.204;6.766;2023-02-28T01:19:08;102492.16;;;1.17;68.82
62051;BME280;48008;51.204;6.766;2023-02-28T01:21:37;102491.84;;;1.26;68.59
62051;BME280;48008;51.204;6.766;2023-02-28T01:24:05;102484.97;;;1.24;68.22
62051;BME280;48008;51.204;6.766;2023-02-28T01:26:32;102490.38;;;1.18;69.48
62051;BME280;48008;51.204;6.766;2023-02-28T01:28:59;102488.25;;;1.04;69.54
62051;BME280;48008;51.204;6.766;2023-02-28T01:31:26;102487.09;;;1.11;69.55
62051;BME280;48008;51.204;6.766;2023-02-28T01:33:53;102486.13;;;1.15;69.03
62051;BME280;48008;51.204;6.766;2023-02-28T01:36:22;102489.94;;;1.05;69.14
62051;BME280;48008;51.204;6.766;2023-02-28T01:38:49;102483.75;;;1.07;69.02
62051;BME280;48008;51.204;6.766;2023-02-28T01:41:20;102485.56;;;1.05;68.75
62051;BME280;48008;51.204;6.766;2023-02-28T01:46:25;102482.13;;;1.03;68.70
62051;BME280;48008;51.204;6.766;2023-02-28T01:49:04;102485.50;;;1.07;69.46
62051;BME280;48008;51.204;6.766;2023-02-28T01:51:43;102481.25;;;1.04;69.30
62051;BME280;48008;51.204;6.766;2023-02-28T01:54:16;102481.19;;;1.06;69.09
62051;BME280;48008;51.204;6.766;2023-02-28T01:56:51;102475.97;;;1.06;68.50
62051;BME280;48008;51.204;6.766;2023-02-28T01:59:26;102483.44;;;0.90;69.13
62051;BME280;48008;51.204;6.766;2023-02-28T02:01:54;102489.47;;;0.92;69.57
62051;BME280;48008;51.204;6.766;2023-02-28T02:04:23;102487.97;;;0.85;70.02
62051;BME280;48008;51.204;6.766;2023-02-28T02:06:52;102480.66;;;0.94;70.31
62051;BME280;48008;51.204;6.766;2023-02-28T02:09:18;102475.31;;;0.99;70.80
62051;BME280;48008;51.204;6.766;2023-02-28T02:11:46;102471.81;;;1.00;70.14
62051;BME280;48008;51.204;6.766;2023-02-28T02:14:32;102474.34;;;1.02;70.36
62051;BME280;48008;51.204;6.766;2023-02-28T02:17:29;102474.56;;;0.95;70.78
62051;BME280;48008;51.204;6.766;2023-02-28T02:20:27;102477.56;;;0.83;70.43
62051;BME280;48008;51.204;6.766;2023-02-28T02:23:25;102473.19;;;0.84;70.93
62051;BME280;48008;51.204;6.766;2023-02-28T02:25:54;102478.31;;;0.87;70.91
62051;BME280;48008;51.204;6.766;2023-02-28T02:40:05;102465.75;;;0.98;70.49
62051;BME280;48008;51.204;6.766;2023-02-28T02:45:42;102453.41;;;0.76;70.88
62051;BME280;48008;51.204;6.766;2023-02-28T02:48:16;102447.06;;;0.55;71.49
62051;BME280;48008;51.204;6.766;2023-02-28T02:50:50;102447.91;;;0.56;71.39
62051;BME280;48008;51.204;6.766;2023-02-28T02:53:24;102441.59;;;0.63;71.61
62051;BME280;48008;51.204;6.766;2023-02-28T02:55:53;102447.41;;;0.73;71.83
62051;BME280;48008;51.204;6.766;2023-02-28T02:58:26;102445.66;;;0.73;72.21
62051;BME280;48008;51.204;6.766;2023-02-28T03:00:59;102445.41;;;0.81;71.46
62051;BME280;48008;51.204;6.766;2023-02-28T03:03:28;102452.47;;;0.77;71.88
62051;BME280;48008;51.204;6.766;2023-02-28T03:05:58;102444.78;;;0.73;71.90
62051;BME280;48008;51.204;6.766;2023-02-28T03:08:26;102454.41;;;0.71;71.64
62051;BME280;48008;51.204;6.766;2023-02-28T03:10:57;102456.97;;;0.72;71.94
62051;BME280;48008;51.204;6.766;2023-02-28T03:13:50;102453.44;;;0.75;72.23
62051;BME280;48008;51.204;6.766;2023-02-28T03:20:04;102453.84;;;0.61;72.59
62051;BME280;48008;51.204;6.766;2023-02-28T03:25:39;102443.13;;;0.42;73.82
62051;BME280;48008;51.204;6.766;2023-02-28T03:28:27;102444.41;;;0.57;73.35
62051;BME280;48008;51.204;6.766;2023-02-28T03:31:40;102445.50;;;0.50;72.93
62051;BME280;48008;51.204;6.766;2023-02-28T03:34:03;102439.75;;;0.38;73.21
62051;BME280;48008;51.204;6.766;2023-02-28T03:36:37;102442.09;;;0.48;72.67
62051;BME280;48008;51.204;6.766;2023-02-28T03:39:15;102439.38;;;0.51;72.61
62051;BME280;48008;51.204;6.766;2023-02-28T03:41:52;102443.66;;;0.53;72.49
62051;BME280;48008;51.204;6.766;2023-02-28T03:44:25;102441.88;;;0.54;72.20
62051;BME280;48008;51.204;6.766;2023-02-28T03:47:00;102446.34;;;0.50;71.86
62051;BME280;48008;51.204;6.766;2023-02-28T03:49:33;102450.81;;;0.47;71.78
62051;BME280;48008;51.204;6.766;2023-02-28T03:52:03;102455.63;;;0.31;71.10
62051;BME280;48008;51.204;6.766;2023-02-28T03:54:35;102449.66;;;0.27;71.11
62051;BME280;48008;51.204;6.766;2023-02-28T03:57:11;102451.25;;;0.33;69.91
62051;BME280;48008;51.204;6.766;2023-02-28T03:59:45;102444.88;;;0.42;70.41
62051;BME280;48008;51.204;6.766;2023-02-28T04:02:14;102455.75;;;0.28;69.70
62051;BME280;48008;51.204;6.766;2023-02-28T04:04:41;102458.03;;;0.38;69.96
62051;BME280;48008;51.204;6.766;2023-02-28T04:07:11;102459.56;;;0.46;69.80
62051;BME280;48008;51.204;6.766;2023-02-28T04:09:38;102458.44;;;0.25;68.79
62051;BME280;48008;51.204;6.766;2023-02-28T04:12:05;102461.50;;;0.09;70.17
62051;BME280;48008;51.204;6.766;2023-02-28T04:14:32;102460.50;;;0.13;69.87
62051;BME280;48008;51.204;6.766;2023-02-28T04:16:58;102458.69;;;0.17;69.65
62051;BME280;48008;51.204;6.766;2023-02-28T04:19:25;102463.69;;;0.23;69.49
62051;BME280;48008;51.204;6.766;2023-02-28T04:21:53;102458.47;;;0.23;69.10
62051;BME280;48008;51.204;6.766;2023-02-28T04:24:23;102459.44;;;0.21;68.81
62051;BME280;48008;51.204;6.766;2023-02-28T04:26:52;102465.44;;;0.24;69.52
62051;BME280;48008;51.204;6.766;2023-02-28T04:32:00;102470.38;;;0.33;68.81
62051;BME280;48008;51.204;6.766;2023-02-28T04:34:30;102469.88;;;0.21;69.33
62051;BME280;48008;51.204;6.766;2023-02-28T04:36:57;102468.34;;;0.13;69.24
62051;BME280;48008;51.204;6.766;2023-02-28T04:39:38;102472.72;;;0.13;69.05
62051;BME280;48008;51.204;6.766;2023-02-28T04:42:05;102469.38;;;0.08;68.93
62051;BME280;48008;51.204;6.766;2023-02-28T04:44:31;102463.47;;;0.01;69.03
62051;BME280;48008;51.204;6.766;2023-02-28T04:46:58;102475.25;;;0.14;69.02
62051;BME280;48008;51.204;6.766;2023-02-28T04:49:25;102470.66;;;0.24;69.15
62051;BME280;48008;51.204;6.766;2023-02-28T04:51:52;102467.00;;;0.30;68.82
62051;BME280;48008;51.204;6.766;2023-02-28T04:54:19;102475.00;;;0.24;68.60
62051;BME280;48008;51.204;6.766;2023-02-28T04:56:46;102475.16;;;0.19;68.98
62051;BME280;48008;51.204;6.766;2023-02-28T04:59:15;102476.00;;;0.19;68.68
62051;BME280;48008;51.204;6.766;2023-02-28T05:01:45;102469.50;;;0.03;69.27
62051;BME280;48008;51.204;6.766;2023-02-28T05:04:13;102481.47;;;0.10;69.17
62051;BME280;48008;51.204;6.766;2023-02-28T05:06:39;102477.19;;;0.09;68.80
62051;BME280;48008;51.204;6.766;2023-02-28T05:09:06;102485.81;;;0.11;68.60
62051;BME280;48008;51.204;6.766;2023-02-28T05:11:34;102479.91;;;0.05;68.13
62051;BME280;48008;51.204;6.766;2023-02-28T05:14:04;102478.34;;;-0.03;67.40
62051;BME280;48008;51.204;6.766;2023-02-28T05:16:31;102477.31;;;0.03;67.79
62051;BME280;48008;51.204;6.766;2023-02-28T05:18:58;102478.31;;;-0.01;66.75
62051;BME280;48008;51.204;6.766;2023-02-28T05:21:31;102476.97;;;-0.14;67.53
62051;BME280;48008;51.204;6.766;2023-02-28T05:24:00;102474.94;;;-0.05;67.53
62051;BME280;48008;51.204;6.766;2023-02-28T05:26:28;102476.78;;;-0.08;67.39
62051;BME280;48008;51.204;6.766;2023-02-28T05:28:55;102479.34;;;-0.07;67.28
62051;BME280;48008;51.204;6.766;2023-02-28T05:31:23;102482.78;;;-0.05;66.76
62051;BME280;48008;51.204;6.766;2023-02-28T05:33:50;102472.34;;;-0.05;67.04
62051;BME280;48008;51.204;6.766;2023-02-28T05:36:17;102479.16;;;-0.01;66.24
62051;BME280;48008;51.204;6.766;2023-02-28T05:38:46;102483.06;;;-0.15;66.27
62051;BME280;48008;51.204;6.766;2023-02-28T05:41:14;102486.44;;;-0.12;66.21
62051;BME280;48008;51.204;6.766;2023-02-28T05:43:40;102485.41;;;-0.06;66.62
62051;BME280;48008;51.204;6.766;2023-02-28T05:46:10;102490.03;;;-0.16;66.42
62051;BME280;48008;51.204;6.766;2023-02-28T05:48:38;102491.56;;;-0.07;66.05
62051;BME280;48008;51.204;6.766;2023-02-28T05:51:06;102490.59;;;-0.05;66.28
62051;BME280;48008;51.204;6.766;2023-02-28T05:53:34;102498.34;;;-0.02;65.92
62051;BME280;48008;51.204;6.766;2023-02-28T05:56:01;102494.09;;;-0.06;66.10
62051;BME280;48008;51.204;6.766;2023-02-28T05:58:28;102498.69;;;-0.14;65.69
62051;BME280;48008;51.204;6.766;2023-02-28T06:00:58;102497.66;;;-0.08;66.25
62051;BME280;48008;51.204;6.766;2023-02-28T06:03:25;102499.41;;;-0.09;65.51
62051;BME280;48008;51.204;6.766;2023-02-28T06:05:53;102500.00;;;-0.30;65.77
62051;BME280;48008;51.204;6.766;2023-02-28T06:08:20;102500.72;;;-0.25;65.21
62051;BME280;48008;51.204;6.766;2023-02-28T06:10:47;102503.22;;;-0.22;64.68
62051;BME280;48008;51.204;6.766;2023-02-28T06:13:13;102505.91;;;-0.24;65.38
62051;BME280;48008;51.204;6.766;2023-02-28T06:15:41;102512.84;;;-0.24;65.52
62051;BME280;48008;51.204;6.766;2023-02-28T06:18:08;102507.69;;;-0.26;65.01
62051;BME280;48008;51.204;6.766;2023-02-28T06:20:35;102512.84;;;-0.24;65.13
62051;BME280;48008;51.204;6.766;2023-02-28T06:23:02;102510.19;;;-0.21;64.98
62051;BME280;48008;51.204;6.766;2023-02-28T06:25:29;102515.88;;;-0.07;65.45
62051;BME280;48008;51.204;6.766;2023-02-28T06:27:56;102513.41;;;-0.13;65.38
62051;BME280;48008;51.204;6.766;2023-02-28T06:30:23;102521.47;;;-0.21;64.83
62051;BME280;48008;51.204;6.766;2023-02-28T06:32:53;102524.81;;;-0.15;65.24
62051;BME280;48008;51.204;6.766;2023-02-28T06:35:21;102521.50;;;-0.22;65.24
62051;BME280;48008;51.204;6.766;2023-02-28T06:37:49;102527.53;;;-0.20;64.90
62051;BME280;48008;51.204;6.766;2023-02-28T06:40:15;102520.59;;;-0.21;64.43
62051;BME280;48008;51.204;6.766;2023-02-28T06:42:42;102520.25;;;-0.07;64.88
62051;BME280;48008;51.204;6.766;2023-02-28T06:45:10;102525.41;;;-0.06;63.69
62051;BME280;48008;51.204;6.766;2023-02-28T06:47:38;102528.94;;;-0.07;64.13
62051;BME280;48008;51.204;6.766;2023-02-28T06:50:10;102529.75;;;-0.05;62.62
62051;BME280;48008;51.204;6.766;2023-02-28T06:52:38;102536.53;;;0.01;62.98
62051;BME280;48008;51.204;6.766;2023-02-28T06:55:05;102538.88;;;-0.21;62.39
62051;BME280;48008;51.204;6.766;2023-02-28T06:57:34;102540.16;;;-0.05;62.85
62051;BME280;48008;51.204;6.766;2023-02-28T07:00:06;102545.91;;;0.08;61.74
62051;BME280;48008;51.204;6.766;2023-02-28T07:02:35;102541.72;;;0.03;61.38
62051;BME280;48008;51.204;6.766;2023-02-28T07:05:02;102549.22;;;-0.18;61.15
62051;BME280;48008;51.204;6.766;2023-02-28T07:07:29;102552.63;;;-0.14;62.04
62051;BME280;48008;51.204;6.766;2023-02-28T07:09:56;102552.19;;;0.01;60.68
62051;BME280;48008;51.204;6.766;2023-02-28T07:12:23;102545.38;;;-0.05;59.99
62051;BME280;48008;51.204;6.766;2023-02-28T07:14:50;102551.03;;;0.13;60.75
62051;BME280;48008;51.204;6.766;2023-02-28T07:17:16;102552.50;;;0.22;60.72
62051;BME280;48008;51.204;6.766;2023-02-28T07:19:43;102552.50;;;0.22;59.29
62051;BME280;48008;51.204;6.766;2023-02-28T07:22:09;102547.38;;;0.18;59.31
62051;BME280;48008;51.204;6.766;2023-02-28T07:24:36;102551.66;;;0.21;59.39
62051;BME280;48008;51.204;6.766;2023-02-28T07:27:03;102547.78;;;0.34;59.77
62051;BME280;48008;51.204;6.766;2023-02-28T07:29:29;102550.34;;;0.36;58.71
62051;BME280;48008;51.204;6.766;2023-02-28T07:31:56;102556.44;;;0.36;58.29
62051;BME280;48008;51.204;6.766;2023-02-28T07:34:23;102555.50;;;0.39;58.68
62051;BME280;48008;51.204;6.766;2023-02-28T07:36:53;102557.88;;;0.47;58.59
62051;BME280;48008;51.204;6.766;2023-02-28T07:39:21;102561.41;;;0.46;57.29
62051;BME280;48008;51.204;6.766;2023-02-28T07:41:48;102562.06;;;0.52;56.35
62051;BME280;48008;51.204;6.766;2023-02-28T07:44:15;102560.88;;;0.64;57.05
62051;BME280;48008;51.204;6.766;2023-02-28T07:46:42;102569.31;;;0.72;55.76
62051;BME280;48008;51.204;6.766;2023-02-28T07:49:09;102568.44;;;0.73;55.55
62051;BME280;48008;51.204;6.766;2023-02-28T07:51:35;102567.44;;;0.77;56.47
62051;BME280;48008;51.204;6.766;2023-02-28T07:54:02;102576.75;;;0.86;54.89
62051;BME280;48008;51.204;6.766;2023-02-28T07:56:29;102570.28;;;0.98;55.37
62051;BME280;48008;51.204;6.766;2023-02-28T07:58:56;102577.59;;;1.17;53.23
62051;BME280;48008;51.204;6.766;2023-02-28T08:01:23;102582.97;;;1.39;53.26
62051;BME280;48008;51.204;6.766;2023-02-28T08:03:49;102570.00;;;1.36;52.09
62051;BME280;48008;51.204;6.766;2023-02-28T08:06:20;102580.06;;;1.48;51.19
62051;BME280;48008;51.204;6.766;2023-02-28T08:08:48;102583.31;;;1.54;51.59
62051;BME280;48008;51.204;6.766;2023-02-28T08:11:16;102577.44;;;1.48;50.11
62051;BME280;48008;51.204;6.766;2023-02-28T08:13:44;102585.38;;;1.71;49.83
62051;BME280;48008;51.204;6.766;2023-02-28T08:16:13;102576.38;;;1.80;49.69
62051;BME280;48008;51.204;6.766;2023-02-28T08:18:43;102580.19;;;1.97;49.84
62051;BME280;48008;51.204;6.766;2023-02-28T08:21:10;102583.25;;;2.08;48.12
62051;BME280;48008;51.204;6.766;2023-02-28T08:23:37;102579.41;;;2.18;47.93
62051;BME280;48008;51.204;6.766;2023-02-28T08:26:05;102581.06;;;2.21;48.97
62051;BME280;48008;51.204;6.766;2023-02-28T08:28:32;102582.19;;;2.39;48.14
62051;BME280;48008;51.204;6.766;2023-02-28T08:28:32;102582.19;;;2.39;48.14
62051;BME280;48008;51.204;6.766;2023-02-28T08:31:00;102588.16;;;2.42;48.04
62051;BME280;48008;51.204;6.766;2023-02-28T08:33:27;102586.25;;;2.22;47.63
62051;BME280;48008;51.204;6.766;2023-02-28T08:35:55;102584.63;;;2.18;47.90
62051;BME280;48008;51.204;6.766;2023-02-28T08:38:23;102587.75;;;2.29;47.98
62051;BME280;48008;51.204;6.766;2023-02-28T08:40:57;102599.50;;;2.18;46.49
62051;BME280;48008;51.204;6.766;2023-02-28T08:43:25;102582.22;;;2.37;45.75
62051;BME280;48008;51.204;6.766;2023-02-28T08:45:52;102582.19;;;2.39;46.89
62051;BME280;48008;51.204;6.766;2023-02-28T08:48:19;102587.22;;;2.43;47.37
62051;BME280;48008;51.204;6.766;2023-02-28T08:51:05;102584.94;;;2.34;46.10
62051;BME280;48008;51.204;6.766;2023-02-28T08:53:34;102584.41;;;2.49;45.75
62051;BME280;48008;51.204;6.766;2023-02-28T08:56:04;102584.59;;;2.67;46.27
62051;BME280;48008;51.204;6.766;2023-02-28T08:58:31;102583.75;;;2.66;46.64
62051;BME280;48008;51.204;6.766;2023-02-28T09:00:58;102586.78;;;2.32;45.34
62051;BME280;48008;51.204;6.766;2023-02-28T09:03:25;102582.50;;;2.29;44.91
62051;BME280;48008;51.204;6.766;2023-02-28T09:05:56;102586.97;;;2.51;46.08
62051;BME280;48008;51.204;6.766;2023-02-28T09:08:24;102584.66;;;2.42;44.07
62051;BME280;48008;51.204;6.766;2023-02-28T09:10:52;102585.69;;;2.38;45.02
62051;BME280;48008;51.204;6.766;2023-02-28T09:13:19;102578.84;;;2.34;44.42
62051;BME280;48008;51.204;6.766;2023-02-28T09:15:46;102573.66;;;2.32;44.28
62051;BME280;48008;51.204;6.766;2023-02-28T09:18:13;102575.06;;;2.42;44.08
62051;BME280;48008;51.204;6.766;2023-02-28T09:20:41;102568.78;;;2.46;44.13
62051;BME280;48008;51.204;6.766;2023-02-28T09:23:09;102576.53;;;2.49;43.51
62051;BME280;48008;51.204;6.766;2023-02-28T09:25:37;102570.66;;;2.66;43.79
62051;BME280;48008;51.204;6.766;2023-02-28T09:28:05;102567.34;;;2.85;43.70
62051;BME280;48008;51.204;6.766;2023-02-28T09:30:31;102564.41;;;2.93;43.45
62051;BME280;48008;51.204;6.766;2023-02-28T09:32:58;102564.88;;;3.04;43.13
62051;BME280;48008;51.204;6.766;2023-02-28T09:35:25;102570.09;;;3.04;42.06
62051;BME280;48008;51.204;6.766;2023-02-28T09:37:53;102574.19;;;3.11;42.34
62051;BME280;48008;51.204;6.766;2023-02-28T09:40:22;102571.25;;;3.41;42.93
62051;BME280;48008;51.204;6.766;2023-02-28T09:42:53;102563.84;;;3.51;42.26
62051;BME280;48008;51.204;6.766;2023-02-28T09:45:33;102568.69;;;3.39;41.81
62051;BME280;48008;51.204;6.766;2023-02-28T09:48:04;102568.63;;;3.41;41.49
62051;BME280;48008;51.204;6.766;2023-02-28T09:50:38;102570.34;;;3.20;42.84
62051;BME280;48008;51.204;6.766;2023-02-28T09:53:15;102567.50;;;3.46;41.71
62051;BME280;48008;51.204;6.766;2023-02-28T09:55:50;102567.19;;;3.54;43.06
62051;BME280;48008;51.204;6.766;2023-02-28T09:58:26;102573.31;;;3.75;41.08
62051;BME280;48008;51.204;6.766;2023-02-28T10:01:02;102569.59;;;3.81;41.06
62051;BME280;48008;51.204;6.766;2023-02-28T10:03:43;102572.19;;;3.81;39.72
62051;BME280;48008;51.204;6.766;2023-02-28T10:06:17;102558.47;;;4.15;40.03
62051;BME280;48008;51.204;6.766;2023-02-28T10:09:04;102559.56;;;4.49;40.67
62051;BME280;48008;51.204;6.766;2023-02-28T10:11:37;102567.78;;;4.41;39.55
62051;BME280;48008;51.204;6.766;2023-02-28T10:14:12;102566.66;;;4.28;40.73
62051;BME280;48008;51.204;6.766;2023-02-28T10:16:44;102561.28;;;4.88;40.01
62051;BME280;48008;51.204;6.766;2023-02-28T10:19:20;102559.66;;;5.22;39.20
62051;BME280;48008;51.204;6.766;2023-02-28T10:21:59;102562.47;;;5.54;40.09
62051;BME280;48008;51.204;6.766;2023-02-28T10:24:31;102557.06;;;5.57;37.86
62051;BME280;48008;51.204;6.766;2023-02-28T10:27:01;102565.31;;;6.52;35.28
62051;BME280;48008;51.204;6.766;2023-02-28T10:29:32;102566.16;;;6.69;35.16
62051;BME280;48008;51.204;6.766;2023-02-28T10:32:01;102560.22;;;6.97;33.74
62051;BME280;48008;51.204;6.766;2023-02-28T10:34:28;102555.94;;;7.57;32.35
62051;BME280;48008;51.204;6.766;2023-02-28T10:36:55;102557.84;;;7.69;33.37
62051;BME280;48008;51.204;6.766;2023-02-28T10:39:41;102565.91;;;9.24;30.72
62051;BME280;48008;51.204;6.766;2023-02-28T10:42:22;102555.41;;;10.14;28.91
62051;BME280;48008;51.204;6.766;2023-02-28T10:45:15;102553.72;;;11.12;28.45
62051;BME280;48008;51.204;6.766;2023-02-28T10:50:44;102574.00;;;14.04;24.14
62051;BME280;48008;51.204;6.766;2023-02-28T10:59:22;102554.63;;;14.33;23.31
62051;BME280;48008;51.204;6.766;2023-02-28T11:01:51;102551.59;;;14.57;22.84
62051;BME280;48008;51.204;6.766;2023-02-28T11:04:32;102560.59;;;15.16;22.64
62051;BME280;48008;51.204;6.766;2023-02-28T11:07:11;102552.25;;;14.39;23.35
62051;BME280;48008;51.204;6.766;2023-02-28T11:09:46;102560.59;;;15.26;22.41
62051;BME280;48008;51.204;6.766;2023-02-28T11:12:29;102551.59;;;17.32;20.21
62051;BME280;48008;51.204;6.766;2023-02-28T11:15:00;102549.41;;;17.98;20.10
62051;BME280;48008;51.204;6.766;2023-02-28T11:17:31;102553.06;;;17.89;19.23
62051;BME280;48008;51.204;6.766;2023-02-28T11:20:02;102548.44;;;16.55;20.65
62051;BME280;48008;51.204;6.766;2023-02-28T11:22:31;102549.53;;;16.07;22.41
62051;BME280;48008;51.204;6.766;2023-02-28T11:25:03;102550.78;;;18.02;19.75
62051;BME280;48008;51.204;6.766;2023-02-28T11:30:23;102553.63;;;18.35;19.02
62051;BME280;48008;51.204;6.766;2023-02-28T11:32:50;102551.75;;;18.78;19.66
62051;BME280;48008;51.204;6.766;2023-02-28T11:35:23;102550.34;;;19.25;19.04
62051;BME280;48008;51.204;6.766;2023-02-28T11:37:51;102556.38;;;19.10;18.80
62051;BME280;48008;51.204;6.766;2023-02-28T11:40:27;102549.94;;;19.93;17.43
62051;BME280;48008;51.204;6.766;2023-02-28T11:43:20;102560.53;;;20.03;17.11
62051;BME280;48008;51.204;6.766;2023-02-28T11:49:37;102546.75;;;19.98;17.00
62051;BME280;48008;51.204;6.766;2023-02-28T11:51:59;102566.59;;;20.05;17.07
62051;BME280;48008;51.204;6.766;2023-02-28T11:54:35;102557.56;;;19.82;17.36
62051;BME280;48008;51.204;6.766;2023-02-28T11:57:22;102559.72;;;21.05;16.05
62051;BME280;48008;51.204;6.766;2023-02-28T12:00:19;102560.75;;;19.52;16.84
62051;BME280;48008;51.204;6.766;2023-02-28T12:03:26;102554.34;;;19.04;17.34
62051;BME280;48008;51.204;6.766;2023-02-28T12:08:53;102549.13;;;19.03;17.28
62051;BME280;48008;51.204;6.766;2023-02-28T12:11:41;102547.28;;;19.11;17.05
62051;BME280;48008;51.204;6.766;2023-02-28T12:23:10;102530.38;;;20.08;17.36
62051;BME280;48008;51.204;6.766;2023-02-28T12:26:06;102532.00;;;19.04;18.22
62051;BME280;48008;51.204;6.766;2023-02-28T12:28:42;102525.66;;;18.62;18.05
62051;BME280;48008;51.204;6.766;2023-02-28T12:31:17;102513.09;;;16.97;19.55
62051;BME280;48008;51.204;6.766;2023-02-28T12:33:49;102505.06;;;16.69;20.03
62051;BME280;48008;51.204;6.766;2023-02-28T12:36:17;102509.34;;;18.05;19.02
62051;BME280;48008;51.204;6.766;2023-02-28T12:42:01;102504.59;;;19.08;18.16
62051;BME280;48008;51.204;6.766;2023-02-28T12:44:49;102505.50;;;18.66;18.83
62051;BME280;48008;51.204;6.766;2023-02-28T12:47:19;102487.53;;;16.57;19.85
62051;BME280;48008;51.204;6.766;2023-02-28T12:49:49;102480.91;;;18.28;19.03
62051;BME280;48008;51.204;6.766;2023-02-28T12:52:28;102474.50;;;16.17;20.70
62051;BME280;48008;51.204;6.766;2023-02-28T12:55:05;102475.06;;;17.90;19.38
62051;BME280;48008;51.204;6.766;2023-02-28T12:57:41;102486.53;;;18.68;18.48
62051;BME280;48008;51.204;6.766;2023-02-28T13:00:14;102473.94;;;18.60;19.30
62051;BME280;48008;51.204;6.766;2023-02-28T13:02:59;102476.97;;;18.73;18.64
62051;BME280;48008;51.204;6.766;2023-02-28T13:06:09;102464.75;;;17.33;19.51
62051;BME280;48008;51.204;6.766;2023-02-28T13:08:56;102455.13;;;17.75;19.78
62051;BME280;48008;51.204;6.766;2023-02-28T13:11:40;102458.31;;;15.24;21.50
62051;BME280;48008;51.204;6.766;2023-02-28T13:14:35;102453.78;;;14.46;22.37
62051;BME280;48008;51.204;6.766;2023-02-28T13:17:12;102445.19;;;15.40;21.32
62051;BME280;48008;51.204;6.766;2023-02-28T13:25:02;102443.84;;;17.37;19.99
62051;BME280;48008;51.204;6.766;2023-02-28T13:27:52;102429.41;;;16.40;20.26
62051;BME280;48008;51.204;6.766;2023-02-28T13:30:59;102434.66;;;18.84;18.99
62051;BME280;48008;51.204;6.766;2023-02-28T13:38:53;102439.56;;;19.05;18.36
62051;BME280;48008;51.204;6.766;2023-02-28T13:52:12;102426.94;;;17.71;18.81
62051;BME280;48008;51.204;6.766;2023-02-28T14:03:58;102401.84;;;15.84;21.03
62051;BME280;48008;51.204;6.766;2023-02-28T14:06:32;102414.19;;;14.90;22.56
62051;BME280;48008;51.204;6.766;2023-02-28T14:09:24;102406.31;;;14.69;22.87
62051;BME280;48008;51.204;6.766;2023-02-28T14:11:51;102399.34;;;15.72;22.79
62051;BME280;48008;51.204;6.766;2023-02-28T14:17:16;102393.34;;;13.75;23.60
62051;BME280;48008;51.204;6.766;2023-02-28T14:19:45;102394.09;;;14.67;23.45
62051;BME280;48008;51.204;6.766;2023-02-28T14:25:31;102395.06;;;13.86;23.82
62051;BME280;48008;51.204;6.766;2023-02-28T14:31:13;102385.81;;;12.54;25.41
62051;BME280;48008;51.204;6.766;2023-02-28T14:34:05;102378.47;;;11.58;26.75
62051;BME280;48008;51.204;6.766;2023-02-28T14:36:40;102388.03;;;11.94;26.72
62051;BME280;48008;51.204;6.766;2023-02-28T14:39:19;102381.38;;;12.76;26.29
62051;BME280;48008;51.204;6.766;2023-02-28T14:41:46;102384.28;;;12.40;26.30
62051;BME280;48008;51.204;6.766;2023-02-28T14:44:20;102381.97;;;11.47;27.93
62051;BME280;48008;51.204;6.766;2023-02-28T14:46:50;102386.03;;;10.46;29.44
62051;BME280;48008;51.204;6.766;2023-02-28T14:49:26;102386.09;;;10.33;29.89
62051;BME280;48008;51.204;6.766;2023-02-28T14:54:37;102377.41;;;9.82;30.65
62051;BME280;48008;51.204;6.766;2023-02-28T14:57:04;102372.13;;;9.05;31.11